sensor_id;sensor_type;location;lat;lon;timestamp;P1;durP1;ratioP1;P2;durP2;ratioP2
56321;SDS011;42227;6.376;-10.782;2023-07-20T00:00:57;12.40;;;6.60;;
56321;SDS011;42227;6.376;-10.782;2023-07-20T00:03:25;14.15;;;6.72;;
56321;SDS011;42227;6.376;-10.782;2023-07-20T00:05:53;13.73;;;6.72;;
56321;SDS011;42227;6.376;-10.782;2023-07-20T00:08:22;13.48;;;6.40;;
56321;SDS011;42227;6.376;-10.782;2023-07-20T00:10:50;17.98;;;7.68;;
56321;SDS011;42227;6.376;-10.782;2023-07-20T00:13:19;10.88;;;6.47;;
56321;SDS011;42227;6.376;-10.782;2023-07-20T00:15:47;15.00;;;6.60;;
56321;SDS011;42227;6.376;-10.782;2023-07-20T00:18:16;17.90;;;10.40;;
56321;SDS011;42227;6.376;-10.782;2023-07-20T00:20:44;15.35;;;6.80;;
56321;SDS011;42227;6.376;-10.782;2023-07-20T00:23:12;13.23;;;7.05;;
56321;SDS011;42227;6.376;-10.782;2023-07-20T00:25:41;12.60;;;7.13;;
56321;SDS011;42227;6.376;-10.782;2023-07-20T00:28:09;17.23;;;9.55;;
56321;SDS011;42227;6.376;-10.782;2023-07-20T00:30:38;14.98;;;6.55;;
56321;SDS011;42227;6.376;-10.782;2023-07-20T00:33:12;19.63;;;7.70;;
56321;SDS011;42227;6.376;-10.782;2023-07-20T00:35:44;14.13;;;7.82;;
56321;SDS011;42227;6.376;-10.782;2023-07-20T00:38:15;30.35;;;16.23;;
56321;SDS011;42227;6.376;-10.782;2023-07-20T00:40:44;20.58;;;10.07;;
56321;SDS011;42227;6.376;-10.782;2023-07-20T00:43:12;14.63;;;9.60;;
56321;SDS011;42227;6.376;-10.782;2023-07-20T00:45:41;11.73;;;6.05;;
56321;SDS011;42227;6.376;-10.782;2023-07-20T00:48:09;16.75;;;6.88;;
56321;SDS011;42227;6.376;-10.782;2023-07-20T00:50:39;14.30;;;6.85;;
56321;SDS011;42227;6.376;-10.782;2023-07-20T00:53:08;17.67;;;10.13;;
56321;SDS011;42227;6.376;-10.782;2023-07-20T00:55:36;17.80;;;7.60;;
56321;SDS011;42227;6.376;-10.782;2023-07-20T00:58:06;10.73;;;5.90;;
56321;SDS011;42227;6.376;-10.782;2023-07-20T01:00:35;10.38;;;5.40;;
56321;SDS011;42227;6.376;-10.782;2023-07-20T01:03:04;14.85;;;6.05;;
56321;SDS011;42227;6.376;-10.782;2023-07-20T01:05:38;11.15;;;5.15;;
56321;SDS011;42227;6.376;-10.782;2023-07-20T01:11:01;9.75;;;4.88;;
56321;SDS011;42227;6.376;-10.782;2023-07-20T01:14:05;9.07;;;5.60;;
56321;SDS011;42227;6.376;-10.782;2023-07-20T01:16:34;11.68;;;4.53;;
56321;SDS011;42227;6.376;-10.782;2023-07-20T01:19:03;7.07;;;4.30;;
56321;SDS011;42227;6.376;-10.782;2023-07-20T01:21:37;11.48;;;5.38;;
56321;SDS011;42227;6.376;-10.782;2023-07-20T01:30:13;20.92;;;6.32;;
56321;SDS011;42227;6.376;-10.782;2023-07-20T01:33:08;7.45;;;5.35;;
56321;SDS011;42227;6.376;-10.782;2023-07-20T01:35:39;12.43;;;5.53;;
56321;SDS011;42227;6.376;-10.782;2023-07-20T01:38:11;16.48;;;4.93;;
56321;SDS011;42227;6.376;-10.782;2023-07-20T01:40:40;11.57;;;4.78;;
56321;SDS011;42227;6.376;-10.782;2023-07-20T01:43:09;8.75;;;5.57;;
56321;SDS011;42227;6.376;-10.782;2023-07-20T01:45:39;12.23;;;5.40;;
56321;SDS011;42227;6.376;-10.782;2023-07-20T01:48:07;8.30;;;5.18;;
56321;SDS011;42227;6.376;-10.782;2023-07-20T01:50:36;9.80;;;5.43;;
56321;SDS011;42227;6.376;-10.782;2023-07-20T01:53:04;14.98;;;5.78;;
56321;SDS011;42227;6.376;-10.782;2023-07-20T01:55:33;10.35;;;5.38;;
56321;SDS011;42227;6.376;-10.782;2023-07-20T01:58:01;7.63;;;4.72;;
56321;SDS011;42227;6.376;-10.782;2023-07-20T02:00:30;7.03;;;5.13;;
56321;SDS011;42227;6.376;-10.782;2023-07-20T02:02:58;7.32;;;4.28;;
56321;SDS011;42227;6.376;-10.782;2023-07-20T02:05:27;8.07;;;4.10;;
56321;SDS011;42227;6.376;-10.782;2023-07-20T02:07:55;5.30;;;3.00;;
56321;SDS011;42227;6.376;-10.782;2023-07-20T02:10:24;6.90;;;3.88;;
56321;SDS011;42227;6.376;-10.782;2023-07-20T02:12:52;6.00;;;2.88;;
56321;SDS011;42227;6.376;-10.782;2023-07-20T02:15:21;5.97;;;3.22;;
56321;SDS011;42227;6.376;-10.782;2023-07-20T02:17:50;7.60;;;2.88;;
56321;SDS011;42227;6.376;-10.782;2023-07-20T02:20:19;9.05;;;3.65;;
56321;SDS011;42227;6.376;-10.782;2023-07-20T02:22:47;6.18;;;3.35;;
56321;SDS011;42227;6.376;-10.782;2023-07-20T02:25:16;7.43;;;3.97;;
56321;SDS011;42227;6.376;-10.782;2023-07-20T02:27:45;6.82;;;3.65;;
56321;SDS011;42227;6.376;-10.782;2023-07-20T02:30:13;4.28;;;3.10;;
56321;SDS011;42227;6.376;-10.782;2023-07-20T02:32:42;8.60;;;4.10;;
56321;SDS011;42227;6.376;-10.782;2023-07-20T02:35:11;11.07;;;4.28;;
56321;SDS011;42227;6.376;-10.782;2023-07-20T02:37:39;16.90;;;4.82;;
56321;SDS011;42227;6.376;-10.782;2023-07-20T02:40:08;11.45;;;4.88;;
56321;SDS011;42227;6.376;-10.782;2023-07-20T02:42:37;10.82;;;5.05;;
56321;SDS011;42227;6.376;-10.782;2023-07-20T02:45:05;6.75;;;3.97;;
56321;SDS011;42227;6.376;-10.782;2023-07-20T02:47:34;7.93;;;5.20;;
56321;SDS011;42227;6.376;-10.782;2023-07-20T02:50:05;11.07;;;5.00;;
56321;SDS011;42227;6.376;-10.782;2023-07-20T02:52:35;11.13;;;5.30;;
56321;SDS011;42227;6.376;-10.782;2023-07-20T02:55:04;8.35;;;4.88;;
56321;SDS011;42227;6.376;-10.782;2023-07-20T02:57:32;15.52;;;4.93;;
56321;SDS011;42227;6.376;-10.782;2023-07-20T03:00:01;12.00;;;5.57;;
56321;SDS011;42227;6.376;-10.782;2023-07-20T03:02:31;8.07;;;4.60;;
56321;SDS011;42227;6.376;-10.782;2023-07-20T03:04:59;10.13;;;5.18;;
56321;SDS011;42227;6.376;-10.782;2023-07-20T03:07:29;14.00;;;4.90;;
56321;SDS011;42227;6.376;-10.782;2023-07-20T03:09:58;13.38;;;5.95;;
56321;SDS011;42227;6.376;-10.782;2023-07-20T03:12:26;12.13;;;5.45;;
56321;SDS011;42227;6.376;-10.782;2023-07-20T03:14:55;8.00;;;5.25;;
56321;SDS011;42227;6.376;-10.782;2023-07-20T03:17:24;10.13;;;5.13;;
56321;SDS011;42227;6.376;-10.782;2023-07-20T03:19:53;12.40;;;5.63;;
56321;SDS011;42227;6.376;-10.782;2023-07-20T03:22:22;13.68;;;5.57;;
56321;SDS011;42227;6.376;-10.782;2023-07-20T03:24:50;10.65;;;6.03;;
56321;SDS011;42227;6.376;-10.782;2023-07-20T03:27:19;9.70;;;5.70;;
56321;SDS011;42227;6.376;-10.782;2023-07-20T03:29:48;13.27;;;6.50;;
56321;SDS011;42227;6.376;-10.782;2023-07-20T03:32:17;16.13;;;5.38;;
56321;SDS011;42227;6.376;-10.782;2023-07-20T03:34:45;11.48;;;4.28;;
56321;SDS011;42227;6.376;-10.782;2023-07-20T03:37:14;12.77;;;4.38;;
56321;SDS011;42227;6.376;-10.782;2023-07-20T03:39:42;9.35;;;4.80;;
56321;SDS011;42227;6.376;-10.782;2023-07-20T03:42:11;7.95;;;4.30;;
56321;SDS011;42227;6.376;-10.782;2023-07-20T03:44:39;11.70;;;4.05;;
56321;SDS011;42227;6.376;-10.782;2023-07-20T03:47:08;8.30;;;4.80;;
56321;SDS011;42227;6.376;-10.782;2023-07-20T03:49:36;8.77;;;3.65;;
56321;SDS011;42227;6.376;-10.782;2023-07-20T03:52:05;5.63;;;3.63;;
56321;SDS011;42227;6.376;-10.782;2023-07-20T03:54:34;7.03;;;4.53;;
56321;SDS011;42227;6.376;-10.782;2023-07-20T03:57:02;7.93;;;4.22;;
56321;SDS011;42227;6.376;-10.782;2023-07-20T03:59:31;10.77;;;4.03;;
56321;SDS011;42227;6.376;-10.782;2023-07-20T04:01:59;5.53;;;3.60;;
56321;SDS011;42227;6.376;-10.782;2023-07-20T04:04:28;6.85;;;3.47;;
56321;SDS011;42227;6.376;-10.782;2023-07-20T04:06:56;8.60;;;3.63;;
56321;SDS011;42227;6.376;-10.782;2023-07-20T04:09:25;11.10;;;4.95;;
56321;SDS011;42227;6.376;-10.782;2023-07-20T04:11:54;10.50;;;4.63;;
56321;SDS011;42227;6.376;-10.782;2023-07-20T04:14:22;10.25;;;3.95;;
56321;SDS011;42227;6.376;-10.782;2023-07-20T04:16:51;13.32;;;5.35;;
56321;SDS011;42227;6.376;-10.782;2023-07-20T04:19:19;9.43;;;3.67;;
56321;SDS011;42227;6.376;-10.782;2023-07-20T04:21:48;10.25;;;4.88;;
56321;SDS011;42227;6.376;-10.782;2023-07-20T04:24:16;10.60;;;5.18;;
56321;SDS011;42227;6.376;-10.782;2023-07-20T04:26:44;10.98;;;5.07;;
56321;SDS011;42227;6.376;-10.782;2023-07-20T04:29:13;9.20;;;6.00;;
56321;SDS011;42227;6.376;-10.782;2023-07-20T04:31:43;12.77;;;6.60;;
56321;SDS011;42227;6.376;-10.782;2023-07-20T04:34:11;11.75;;;6.03;;
56321;SDS011;42227;6.376;-10.782;2023-07-20T04:36:41;11.55;;;5.57;;
56321;SDS011;42227;6.376;-10.782;2023-07-20T04:39:09;9.98;;;5.68;;
56321;SDS011;42227;6.376;-10.782;2023-07-20T04:41:58;9.20;;;5.10;;
56321;SDS011;42227;6.376;-10.782;2023-07-20T04:44:27;11.00;;;5.07;;
56321;SDS011;42227;6.376;-10.782;2023-07-20T04:46:55;7.72;;;5.05;;
56321;SDS011;42227;6.376;-10.782;2023-07-20T04:49:24;19.45;;;7.07;;
56321;SDS011;42227;6.376;-10.782;2023-07-20T04:51:53;18.45;;;6.55;;
56321;SDS011;42227;6.376;-10.782;2023-07-20T04:54:21;12.95;;;6.75;;
56321;SDS011;42227;6.376;-10.782;2023-07-20T04:56:50;13.25;;;5.93;;
56321;SDS011;42227;6.376;-10.782;2023-07-20T04:59:19;13.45;;;5.63;;
56321;SDS011;42227;6.376;-10.782;2023-07-20T05:01:48;14.10;;;5.80;;
56321;SDS011;42227;6.376;-10.782;2023-07-20T05:04:17;9.90;;;5.90;;
56321;SDS011;42227;6.376;-10.782;2023-07-20T05:06:49;9.45;;;5.60;;
56321;SDS011;42227;6.376;-10.782;2023-07-20T05:09:17;16.90;;;7.03;;
56321;SDS011;42227;6.376;-10.782;2023-07-20T05:11:48;16.92;;;6.38;;
56321;SDS011;42227;6.376;-10.782;2023-07-20T05:14:16;9.23;;;6.50;;
56321;SDS011;42227;6.376;-10.782;2023-07-20T05:16:46;15.18;;;6.45;;
56321;SDS011;42227;6.376;-10.782;2023-07-20T05:19:14;10.55;;;6.70;;
56321;SDS011;42227;6.376;-10.782;2023-07-20T05:21:43;18.65;;;7.88;;
56321;SDS011;42227;6.376;-10.782;2023-07-20T05:24:11;12.40;;;7.50;;
56321;SDS011;42227;6.376;-10.782;2023-07-20T05:26:40;11.95;;;8.05;;
56321;SDS011;42227;6.376;-10.782;2023-07-20T05:29:08;13.07;;;7.90;;
56321;SDS011;42227;6.376;-10.782;2023-07-20T05:31:37;18.00;;;7.10;;
56321;SDS011;42227;6.376;-10.782;2023-07-20T05:34:05;20.52;;;7.78;;
56321;SDS011;42227;6.376;-10.782;2023-07-20T05:36:34;17.90;;;7.65;;
56321;SDS011;42227;6.376;-10.782;2023-07-20T05:39:20;15.00;;;7.97;;
56321;SDS011;42227;6.376;-10.782;2023-07-20T05:41:49;12.85;;;7.00;;
56321;SDS011;42227;6.376;-10.782;2023-07-20T05:44:17;11.90;;;7.13;;
56321;SDS011;42227;6.376;-10.782;2023-07-20T05:46:46;15.63;;;6.93;;
56321;SDS011;42227;6.376;-10.782;2023-07-20T05:49:23;19.55;;;6.55;;
56321;SDS011;42227;6.376;-10.782;2023-07-20T05:51:52;17.23;;;7.72;;
56321;SDS011;42227;6.376;-10.782;2023-07-20T05:54:20;16.25;;;8.00;;
56321;SDS011;42227;6.376;-10.782;2023-07-20T05:56:49;16.15;;;8.55;;
56321;SDS011;42227;6.376;-10.782;2023-07-20T05:59:17;19.30;;;9.45;;
56321;SDS011;42227;6.376;-10.782;2023-07-20T06:01:46;17.95;;;9.15;;
56321;SDS011;42227;6.376;-10.782;2023-07-20T06:04:15;17.85;;;8.68;;
56321;SDS011;42227;6.376;-10.782;2023-07-20T06:06:43;16.67;;;8.50;;
56321;SDS011;42227;6.376;-10.782;2023-07-20T06:09:12;16.33;;;8.77;;
56321;SDS011;42227;6.376;-10.782;2023-07-20T06:11:40;24.40;;;10.77;;
56321;SDS011;42227;6.376;-10.782;2023-07-20T06:14:09;18.80;;;10.32;;
56321;SDS011;42227;6.376;-10.782;2023-07-20T06:20:11;21.27;;;10.70;;
56321;SDS011;42227;6.376;-10.782;2023-07-20T06:22:40;18.13;;;10.00;;
56321;SDS011;42227;6.376;-10.782;2023-07-20T06:25:09;16.52;;;11.02;;
56321;SDS011;42227;6.376;-10.782;2023-07-20T06:27:37;23.48;;;11.80;;
56321;SDS011;42227;6.376;-10.782;2023-07-20T06:30:07;18.25;;;10.05;;
56321;SDS011;42227;6.376;-10.782;2023-07-20T06:32:36;17.77;;;10.30;;
56321;SDS011;42227;6.376;-10.782;2023-07-20T06:35:05;22.15;;;8.73;;
56321;SDS011;42227;6.376;-10.782;2023-07-20T06:37:34;21.63;;;10.77;;
56321;SDS011;42227;6.376;-10.782;2023-07-20T06:40:03;23.73;;;9.45;;
56321;SDS011;42227;6.376;-10.782;2023-07-20T06:42:34;23.08;;;8.05;;
56321;SDS011;42227;6.376;-10.782;2023-07-20T06:45:06;20.30;;;7.93;;
56321;SDS011;42227;6.376;-10.782;2023-07-20T06:47:34;19.45;;;8.82;;
56321;SDS011;42227;6.376;-10.782;2023-07-20T06:50:07;17.67;;;8.00;;
56321;SDS011;42227;6.376;-10.782;2023-07-20T06:52:43;20.40;;;8.18;;
56321;SDS011;42227;6.376;-10.782;2023-07-20T06:55:11;20.85;;;8.82;;
56321;SDS011;42227;6.376;-10.782;2023-07-20T06:57:40;19.30;;;8.52;;
56321;SDS011;42227;6.376;-10.782;2023-07-20T07:00:14;19.25;;;8.43;;
56321;SDS011;42227;6.376;-10.782;2023-07-20T07:02:43;16.73;;;8.40;;
56321;SDS011;42227;6.376;-10.782;2023-07-20T07:05:16;15.00;;;8.13;;
56321;SDS011;42227;6.376;-10.782;2023-07-20T07:07:47;17.88;;;9.20;;
56321;SDS011;42227;6.376;-10.782;2023-07-20T07:10:15;21.30;;;10.15;;
56321;SDS011;42227;6.376;-10.782;2023-07-20T07:12:44;19.60;;;9.80;;
56321;SDS011;42227;6.376;-10.782;2023-07-20T07:15:12;16.95;;;7.40;;
56321;SDS011;42227;6.376;-10.782;2023-07-20T07:17:41;10.20;;;6.50;;
56321;SDS011;42227;6.376;-10.782;2023-07-20T07:20:09;14.13;;;8.52;;
56321;SDS011;42227;6.376;-10.782;2023-07-20T07:22:46;17.25;;;8.07;;
56321;SDS011;42227;6.376;-10.782;2023-07-20T07:25:22;13.35;;;8.45;;
56321;SDS011;42227;6.376;-10.782;2023-07-20T07:27:52;16.08;;;9.38;;
56321;SDS011;42227;6.376;-10.782;2023-07-20T07:30:21;18.02;;;7.57;;
56321;SDS011;42227;6.376;-10.782;2023-07-20T07:32:49;22.45;;;9.40;;
56321;SDS011;42227;6.376;-10.782;2023-07-20T07:35:17;17.13;;;9.32;;
56321;SDS011;42227;6.376;-10.782;2023-07-20T07:37:46;17.73;;;8.43;;
56321;SDS011;42227;6.376;-10.782;2023-07-20T07:40:34;15.55;;;6.60;;
56321;SDS011;42227;6.376;-10.782;2023-07-20T07:43:03;9.02;;;7.13;;
56321;SDS011;42227;6.376;-10.782;2023-07-20T07:45:34;10.95;;;6.82;;
56321;SDS011;42227;6.376;-10.782;2023-07-20T07:48:03;10.90;;;6.70;;
56321;SDS011;42227;6.376;-10.782;2023-07-20T07:50:33;13.48;;;6.85;;
56321;SDS011;42227;6.376;-10.782;2023-07-20T07:53:02;18.27;;;8.32;;
56321;SDS011;42227;6.376;-10.782;2023-07-20T07:55:30;14.43;;;6.00;;
56321;SDS011;42227;6.376;-10.782;2023-07-20T07:57:59;18.45;;;6.82;;
56321;SDS011;42227;6.376;-10.782;2023-07-20T08:00:27;20.17;;;9.35;;
56321;SDS011;42227;6.376;-10.782;2023-07-20T08:02:56;17.15;;;10.18;;
56321;SDS011;42227;6.376;-10.782;2023-07-20T08:05:24;10.90;;;8.20;;
56321;SDS011;42227;6.376;-10.782;2023-07-20T08:07:53;15.45;;;6.40;;
56321;SDS011;42227;6.376;-10.782;2023-07-20T08:10:21;11.18;;;6.85;;
56321;SDS011;42227;6.376;-10.782;2023-07-20T08:12:50;10.73;;;6.93;;
56321;SDS011;42227;6.376;-10.782;2023-07-20T08:15:19;10.68;;;6.80;;
56321;SDS011;42227;6.376;-10.782;2023-07-20T08:17:48;12.85;;;6.28;;
56321;SDS011;42227;6.376;-10.782;2023-07-20T08:20:17;10.40;;;6.93;;
56321;SDS011;42227;6.376;-10.782;2023-07-20T08:22:45;14.95;;;8.68;;
56321;SDS011;42227;6.376;-10.782;2023-07-20T08:25:15;19.02;;;9.35;;
56321;SDS011;42227;6.376;-10.782;2023-07-20T08:27:43;13.52;;;8.98;;
56321;SDS011;42227;6.376;-10.782;2023-07-20T08:30:12;17.65;;;9.40;;
56321;SDS011;42227;6.376;-10.782;2023-07-20T08:32:41;19.98;;;9.75;;
56321;SDS011;42227;6.376;-10.782;2023-07-20T08:35:10;15.23;;;8.82;;
56321;SDS011;42227;6.376;-10.782;2023-07-20T08:37:42;17.35;;;8.93;;
56321;SDS011;42227;6.376;-10.782;2023-07-20T08:40:11;23.70;;;9.95;;
56321;SDS011;42227;6.376;-10.782;2023-07-20T08:42:41;23.37;;;10.13;;
56321;SDS011;42227;6.376;-10.782;2023-07-20T08:45:11;21.85;;;10.07;;
56321;SDS011;42227;6.376;-10.782;2023-07-20T08:47:41;24.85;;;8.95;;
56321;SDS011;42227;6.376;-10.782;2023-07-20T08:50:10;26.33;;;8.63;;
56321;SDS011;42227;6.376;-10.782;2023-07-20T08:52:40;18.63;;;9.88;;
56321;SDS011;42227;6.376;-10.782;2023-07-20T08:55:09;19.13;;;10.63;;
56321;SDS011;42227;6.376;-10.782;2023-07-20T08:57:37;21.80;;;10.20;;
56321;SDS011;42227;6.376;-10.782;2023-07-20T09:00:09;17.20;;;8.32;;
56321;SDS011;42227;6.376;-10.782;2023-07-20T09:02:39;22.48;;;10.00;;
56321;SDS011;42227;6.376;-10.782;2023-07-20T09:07:41;20.02;;;8.15;;
56321;SDS011;42227;6.376;-10.782;2023-07-20T09:10:10;9.77;;;7.22;;
56321;SDS011;42227;6.376;-10.782;2023-07-20T09:12:43;16.85;;;7.80;;
56321;SDS011;42227;6.376;-10.782;2023-07-20T09:15:13;17.38;;;8.10;;
56321;SDS011;42227;6.376;-10.782;2023-07-20T09:17:51;20.90;;;8.80;;
56321;SDS011;42227;6.376;-10.782;2023-07-20T09:20:20;20.55;;;9.77;;
56321;SDS011;42227;6.376;-10.782;2023-07-20T09:22:50;21.27;;;8.73;;
56321;SDS011;42227;6.376;-10.782;2023-07-20T09:25:20;22.38;;;9.13;;
56321;SDS011;42227;6.376;-10.782;2023-07-20T09:27:53;18.20;;;9.93;;
56321;SDS011;42227;6.376;-10.782;2023-07-20T09:30:24;16.65;;;8.93;;
56321;SDS011;42227;6.376;-10.782;2023-07-20T09:32:56;16.15;;;9.50;;
56321;SDS011;42227;6.376;-10.782;2023-07-20T09:35:25;16.45;;;8.77;;
56321;SDS011;42227;6.376;-10.782;2023-07-20T09:38:01;22.08;;;8.18;;
56321;SDS011;42227;6.376;-10.782;2023-07-20T09:40:37;50.55;;;11.52;;
56321;SDS011;42227;6.376;-10.782;2023-07-20T09:43:08;23.85;;;9.75;;
56321;SDS011;42227;6.376;-10.782;2023-07-20T09:45:46;14.35;;;9.25;;
56321;SDS011;42227;6.376;-10.782;2023-07-20T09:48:23;19.98;;;8.55;;
56321;SDS011;42227;6.376;-10.782;2023-07-20T09:51:13;24.38;;;9.43;;
56321;SDS011;42227;6.376;-10.782;2023-07-20T09:53:41;18.23;;;9.35;;
56321;SDS011;42227;6.376;-10.782;2023-07-20T09:56:11;17.42;;;9.23;;
56321;SDS011;42227;6.376;-10.782;2023-07-20T09:58:44;24.40;;;10.13;;
56321;SDS011;42227;6.376;-10.782;2023-07-20T10:01:14;17.85;;;8.90;;
56321;SDS011;42227;6.376;-10.782;2023-07-20T10:04:02;19.88;;;9.05;;
56321;SDS011;42227;6.376;-10.782;2023-07-20T10:06:32;13.70;;;7.65;;
56321;SDS011;42227;6.376;-10.782;2023-07-20T10:09:03;11.77;;;6.78;;
56321;SDS011;42227;6.376;-10.782;2023-07-20T10:11:36;17.35;;;6.00;;
56321;SDS011;42227;6.376;-10.782;2023-07-20T10:14:09;16.30;;;7.65;;
56321;SDS011;42227;6.376;-10.782;2023-07-20T10:16:50;26.00;;;8.18;;
56321;SDS011;42227;6.376;-10.782;2023-07-20T10:22:10;14.45;;;7.63;;
56321;SDS011;42227;6.376;-10.782;2023-07-20T10:24:44;18.90;;;8.88;;
56321;SDS011;42227;6.376;-10.782;2023-07-20T10:27:15;12.15;;;6.32;;
56321;SDS011;42227;6.376;-10.782;2023-07-20T10:29:51;13.45;;;7.28;;
56321;SDS011;42227;6.376;-10.782;2023-07-20T10:32:20;15.77;;;7.68;;
56321;SDS011;42227;6.376;-10.782;2023-07-20T10:34:52;13.00;;;7.05;;
56321;SDS011;42227;6.376;-10.782;2023-07-20T10:40:29;25.63;;;10.13;;
56321;SDS011;42227;6.376;-10.782;2023-07-20T10:43:11;18.25;;;7.88;;
56321;SDS011;42227;6.376;-10.782;2023-07-20T10:45:49;21.48;;;9.02;;
56321;SDS011;42227;6.376;-10.782;2023-07-20T10:48:23;15.60;;;8.93;;
56321;SDS011;42227;6.376;-10.782;2023-07-20T10:51:09;17.45;;;8.57;;
56321;SDS011;42227;6.376;-10.782;2023-07-20T10:53:41;15.90;;;7.95;;
56321;SDS011;42227;6.376;-10.782;2023-07-20T10:56:14;19.98;;;8.40;;
56321;SDS011;42227;6.376;-10.782;2023-07-20T10:58:47;13.48;;;7.45;;
56321;SDS011;42227;6.376;-10.782;2023-07-20T11:01:18;10.95;;;8.05;;
56321;SDS011;42227;6.376;-10.782;2023-07-20T11:03:49;19.80;;;9.18;;
56321;SDS011;42227;6.376;-10.782;2023-07-20T11:08:55;13.10;;;8.60;;
56321;SDS011;42227;6.376;-10.782;2023-07-20T11:11:34;19.88;;;9.35;;
56321;SDS011;42227;6.376;-10.782;2023-07-20T11:14:22;22.88;;;9.75;;
56321;SDS011;42227;6.376;-10.782;2023-07-20T11:16:52;17.00;;;8.45;;
56321;SDS011;42227;6.376;-10.782;2023-07-20T11:19:23;16.08;;;7.82;;
56321;SDS011;42227;6.376;-10.782;2023-07-20T11:21:56;21.75;;;7.97;;
56321;SDS011;42227;6.376;-10.782;2023-07-20T11:24:30;14.20;;;8.52;;
56321;SDS011;42227;6.376;-10.782;2023-07-20T11:27:00;20.60;;;9.80;;
56321;SDS011;42227;6.376;-10.782;2023-07-20T11:29:28;21.08;;;9.07;;
56321;SDS011;42227;6.376;-10.782;2023-07-20T11:32:01;21.98;;;9.05;;
56321;SDS011;42227;6.376;-10.782;2023-07-20T11:34:32;23.02;;;9.15;;
56321;SDS011;42227;6.376;-10.782;2023-07-20T11:37:02;22.40;;;9.23;;
56321;SDS011;42227;6.376;-10.782;2023-07-20T11:39:36;14.63;;;8.77;;
56321;SDS011;42227;6.376;-10.782;2023-07-20T11:42:04;23.52;;;10.90;;
56321;SDS011;42227;6.376;-10.782;2023-07-20T11:44:33;21.33;;;11.05;;
56321;SDS011;42227;6.376;-10.782;2023-07-20T11:49:38;14.55;;;8.27;;
56321;SDS011;42227;6.376;-10.782;2023-07-20T11:52:09;19.95;;;9.02;;
56321;SDS011;42227;6.376;-10.782;2023-07-20T11:54:42;27.20;;;10.27;;
56321;SDS011;42227;6.376;-10.782;2023-07-20T11:57:21;17.70;;;9.38;;
56321;SDS011;42227;6.376;-10.782;2023-07-20T11:59:57;19.77;;;9.65;;
56321;SDS011;42227;6.376;-10.782;2023-07-20T12:02:32;16.05;;;8.55;;
56321;SDS011;42227;6.376;-10.782;2023-07-20T12:05:01;14.07;;;7.72;;
56321;SDS011;42227;6.376;-10.782;2023-07-20T12:07:34;22.67;;;10.10;;
56321;SDS011;42227;6.376;-10.782;2023-07-20T12:10:05;22.60;;;10.18;;
56321;SDS011;42227;6.376;-10.782;2023-07-20T12:12:40;18.40;;;10.45;;
56321;SDS011;42227;6.376;-10.782;2023-07-20T12:15:25;24.55;;;9.77;;
56321;SDS011;42227;6.376;-10.782;2023-07-20T12:17:55;13.70;;;7.97;;
56321;SDS011;42227;6.376;-10.782;2023-07-20T12:20:28;14.60;;;9.05;;
56321;SDS011;42227;6.376;-10.782;2023-07-20T12:23:02;15.98;;;6.75;;
56321;SDS011;42227;6.376;-10.782;2023-07-20T12:25:33;14.25;;;8.85;;
56321;SDS011;42227;6.376;-10.782;2023-07-20T12:28:04;14.55;;;7.93;;
56321;SDS011;42227;6.376;-10.782;2023-07-20T12:30:34;12.38;;;8.32;;
56321;SDS011;42227;6.376;-10.782;2023-07-20T12:33:04;12.07;;;7.85;;
56321;SDS011;42227;6.376;-10.782;2023-07-20T12:35:34;19.33;;;7.30;;
56321;SDS011;42227;6.376;-10.782;2023-07-20T12:38:03;16.17;;;7.53;;
56321;SDS011;42227;6.376;-10.782;2023-07-20T12:40:32;15.07;;;8.25;;
56321;SDS011;42227;6.376;-10.782;2023-07-20T12:43:01;17.83;;;12.25;;
56321;SDS011;42227;6.376;-10.782;2023-07-20T12:45:30;15.45;;;8.82;;
56321;SDS011;42227;6.376;-10.782;2023-07-20T12:47:59;15.90;;;8.43;;
56321;SDS011;42227;6.376;-10.782;2023-07-20T12:50:27;20.70;;;10.00;;
56321;SDS011;42227;6.376;-10.782;2023-07-20T12:52:56;17.17;;;8.13;;
56321;SDS011;42227;6.376;-10.782;2023-07-20T12:55:25;13.52;;;9.60;;
56321;SDS011;42227;6.376;-10.782;2023-07-20T12:57:54;6.03;;;2.83;;
56321;SDS011;42227;6.376;-10.782;2023-07-20T13:00:22;6.68;;;3.67;;
56321;SDS011;42227;6.376;-10.782;2023-07-20T13:02:51;12.82;;;9.60;;
56321;SDS011;42227;6.376;-10.782;2023-07-20T13:05:35;24.08;;;16.42;;
56321;SDS011;42227;6.376;-10.782;2023-07-20T13:08:06;13.77;;;9.63;;
56321;SDS011;42227;6.376;-10.782;2023-07-20T13:10:41;11.25;;;8.80;;
56321;SDS011;42227;6.376;-10.782;2023-07-20T13:13:11;9.60;;;7.47;;
56321;SDS011;42227;6.376;-10.782;2023-07-20T13:15:43;15.05;;;9.05;;
56321;SDS011;42227;6.376;-10.782;2023-07-20T13:18:12;15.88;;;7.68;;
56321;SDS011;42227;6.376;-10.782;2023-07-20T13:20:41;17.90;;;12.32;;
56321;SDS011;42227;6.376;-10.782;2023-07-20T13:23:09;10.15;;;6.88;;
56321;SDS011;42227;6.376;-10.782;2023-07-20T13:25:38;7.88;;;4.45;;
56321;SDS011;42227;6.376;-10.782;2023-07-20T13:28:07;7.72;;;3.45;;
56321;SDS011;42227;6.376;-10.782;2023-07-20T13:30:35;5.85;;;3.63;;
56321;SDS011;42227;6.376;-10.782;2023-07-20T13:33:07;11.52;;;6.22;;
56321;SDS011;42227;6.376;-10.782;2023-07-20T13:38:10;6.20;;;2.90;;
56321;SDS011;42227;6.376;-10.782;2023-07-20T13:40:39;11.43;;;5.60;;
56321;SDS011;42227;6.376;-10.782;2023-07-20T13:43:08;6.32;;;3.55;;
56321;SDS011;42227;6.376;-10.782;2023-07-20T13:45:36;6.75;;;4.63;;
56321;SDS011;42227;6.376;-10.782;2023-07-20T13:48:06;6.65;;;4.93;;
56321;SDS011;42227;6.376;-10.782;2023-07-20T13:50:40;13.90;;;11.18;;
56321;SDS011;42227;6.376;-10.782;2023-07-20T13:53:25;31.70;;;20.75;;
56321;SDS011;42227;6.376;-10.782;2023-07-20T13:56:00;17.95;;;13.07;;
56321;SDS011;42227;6.376;-10.782;2023-07-20T13:58:32;5.65;;;3.88;;
56321;SDS011;42227;6.376;-10.782;2023-07-20T14:01:01;5.47;;;2.83;;
56321;SDS011;42227;6.376;-10.782;2023-07-20T14:03:29;7.70;;;5.03;;
56321;SDS011;42227;6.376;-10.782;2023-07-20T14:05:58;3.55;;;2.53;;
56321;SDS011;42227;6.376;-10.782;2023-07-20T14:08:29;6.72;;;5.55;;
56321;SDS011;42227;6.376;-10.782;2023-07-20T14:10:57;4.40;;;3.53;;
56321;SDS011;42227;6.376;-10.782;2023-07-20T14:13:29;5.95;;;3.00;;
56321;SDS011;42227;6.376;-10.782;2023-07-20T14:16:12;6.45;;;4.32;;
56321;SDS011;42227;6.376;-10.782;2023-07-20T14:18:41;3.92;;;2.35;;
56321;SDS011;42227;6.376;-10.782;2023-07-20T14:21:10;3.28;;;2.05;;
56321;SDS011;42227;6.376;-10.782;2023-07-20T14:23:38;6.07;;;3.30;;
56321;SDS011;42227;6.376;-10.782;2023-07-20T14:26:08;6.93;;;3.30;;
56321;SDS011;42227;6.376;-10.782;2023-07-20T14:28:43;8.27;;;6.78;;
56321;SDS011;42227;6.376;-10.782;2023-07-20T14:31:12;24.08;;;21.67;;
56321;SDS011;42227;6.376;-10.782;2023-07-20T14:33:41;13.30;;;11.75;;
56321;SDS011;42227;6.376;-10.782;2023-07-20T14:36:09;23.08;;;20.92;;
56321;SDS011;42227;6.376;-10.782;2023-07-20T14:38:38;17.10;;;14.88;;
56321;SDS011;42227;6.376;-10.782;2023-07-20T14:41:06;34.53;;;31.33;;
56321;SDS011;42227;6.376;-10.782;2023-07-20T14:43:35;18.42;;;16.27;;
56321;SDS011;42227;6.376;-10.782;2023-07-20T14:46:03;4.97;;;4.47;;
56321;SDS011;42227;6.376;-10.782;2023-07-20T14:48:32;7.10;;;4.35;;
56321;SDS011;42227;6.376;-10.782;2023-07-20T14:51:01;5.90;;;4.22;;
56321;SDS011;42227;6.376;-10.782;2023-07-20T14:53:32;5.40;;;4.75;;
56321;SDS011;42227;6.376;-10.782;2023-07-20T14:56:03;4.80;;;3.63;;
56321;SDS011;42227;6.376;-10.782;2023-07-20T14:58:31;5.65;;;3.65;;
56321;SDS011;42227;6.376;-10.782;2023-07-20T15:01:02;4.63;;;3.42;;
56321;SDS011;42227;6.376;-10.782;2023-07-20T15:03:31;8.02;;;3.85;;
56321;SDS011;42227;6.376;-10.782;2023-07-20T15:06:00;3.58;;;2.63;;
56321;SDS011;42227;6.376;-10.782;2023-07-20T15:08:30;5.97;;;3.88;;
56321;SDS011;42227;6.376;-10.782;2023-07-20T15:11:00;5.75;;;3.70;;